createdAt,value
2019-02-28T00:00:55.956Z,10.30
2019-02-28T00:03:22.461Z,8.88
2019-02-28T00:05:48.736Z,10.82
2019-02-28T00:08:16.005Z,14.18
2019-02-28T00:10:42.119Z,9.55
2019-02-28T00:13:08.338Z,11.75
2019-02-28T00:15:34.537Z,9.48
2019-02-28T00:18:00.743Z,8.53
2019-02-28T00:20:29.151Z,9.03
2019-02-28T00:22:55.012Z,8.65
2019-02-28T00:25:21.155Z,11.53
2019-02-28T00:27:47.412Z,8.08
2019-02-28T00:30:14.789Z,8.28
2019-02-28T00:32:40.947Z,9.98
2019-02-28T00:35:12.799Z,10.38
2019-02-28T00:37:35.782Z,10.30
2019-02-28T00:40:02.300Z,9.53
2019-02-28T00:42:29.737Z,8.98
2019-02-28T00:44:55.895Z,10.63
2019-02-28T00:47:22.180Z,8.65
2019-02-28T00:49:48.468Z,11.43
2019-02-28T00:52:14.698Z,9.85
2019-02-28T00:54:44.348Z,8.58
2019-02-28T00:57:09.934Z,10.70
2019-02-28T00:59:36.218Z,10.45
2019-02-28T01:02:02.625Z,10.65
2019-02-28T01:04:30.028Z,10.13
2019-02-28T01:06:56.952Z,10.38
2019-02-28T01:09:23.098Z,9.38
2019-02-28T01:11:49.300Z,9.45
2019-02-28T01:14:15.564Z,15.13
2019-02-28T01:16:41.790Z,8.53
2019-02-28T01:19:09.070Z,9.80
2019-02-28T01:21:36.134Z,9.53
2019-02-28T01:24:02.315Z,13.98
2019-02-28T01:26:30.521Z,9.83
2019-02-28T01:29:01.525Z,11.83
2019-02-28T01:31:24.822Z,10.85
2019-02-28T01:33:51.039Z,9.75
2019-02-28T01:36:17.140Z,13.95
2019-02-28T01:38:44.525Z,11.85
2019-02-28T01:41:11.186Z,11.03
2019-02-28T01:43:38.167Z,12.85
2019-02-28T01:46:04.520Z,16.35
2019-02-28T01:48:30.716Z,10.72
2019-02-28T01:50:56.833Z,14.07
2019-02-28T01:53:23.056Z,12.05
2019-02-28T01:55:49.179Z,14.38
2019-02-28T01:58:16.874Z,14.07
2019-02-28T02:00:43.484Z,11.43
2019-02-28T02:03:10.196Z,14.70
2019-02-28T02:05:36.415Z,18.70
2019-02-28T02:08:06.538Z,11.93
2019-02-28T02:10:31.015Z,19.35
2019-02-28T02:12:57.186Z,12.40
2019-02-28T02:15:23.410Z,14.20
2019-02-28T02:17:49.647Z,13.48
2019-02-28T02:20:16.081Z,11.38
2019-02-28T02:22:44.613Z,13.62
2019-02-28T02:25:10.913Z,13.78
2019-02-28T02:27:37.342Z,14.60
2019-02-28T02:30:16.423Z,14.15
2019-02-28T02:32:43.808Z,21.23
2019-02-28T02:35:10.272Z,13.45
2019-02-28T02:37:36.650Z,14.35
2019-02-28T02:40:09.403Z,12.90
2019-02-28T02:42:35.625Z,12.45
2019-02-28T02:45:04.931Z,13.60
2019-02-28T02:47:32.477Z,12.33
2019-02-28T02:49:58.254Z,11.53
2019-02-28T02:52:29.981Z,12.60
2019-02-28T02:54:53.024Z,12.75
2019-02-28T02:57:19.436Z,14.95
2019-02-28T02:59:45.541Z,12.73
2019-02-28T03:02:11.857Z,12.68
2019-02-28T03:04:38.011Z,14.28
2019-02-28T03:07:04.407Z,17.23
2019-02-28T03:09:30.658Z,16.25
2019-02-28T03:11:57.725Z,12.63
2019-02-28T03:14:24.956Z,13.08
2019-02-28T03:16:51.054Z,12.55
2019-02-28T03:19:17.326Z,12.07
2019-02-28T03:21:47.762Z,18.30
2019-02-28T03:24:15.206Z,12.80
2019-02-28T03:26:41.895Z,13.03
2019-02-28T03:29:08.937Z,13.20
2019-02-28T03:31:35.364Z,13.00
2019-02-28T03:34:10.039Z,12.85
2019-02-28T03:36:30.032Z,13.72
2019-02-28T03:38:56.411Z,13.58
2019-02-28T03:41:22.712Z,14.25
2019-02-28T03:43:48.931Z,16.55
2019-02-28T03:46:15.233Z,14.45
2019-02-28T03:48:41.576Z,14.47
2019-02-28T03:51:07.705Z,13.00
2019-02-28T03:53:33.913Z,13.18
2019-02-28T03:56:00.082Z,17.62
2019-02-28T03:58:26.264Z,15.72
2019-02-28T04:00:52.629Z,16.25
2019-02-28T04:03:19.018Z,13.38
2019-02-28T04:05:45.359Z,13.65
2019-02-28T04:08:11.528Z,17.05
2019-02-28T04:10:37.823Z,15.70
2019-02-28T04:13:04.004Z,13.90
2019-02-28T04:15:30.316Z,13.28
2019-02-28T04:17:57.728Z,14.18
2019-02-28T04:20:23.986Z,14.65
2019-02-28T04:22:50.370Z,15.80
2019-02-28T04:25:22.833Z,14.68
2019-02-28T04:27:44.722Z,13.98
2019-02-28T04:30:12.071Z,16.67
2019-02-28T04:32:38.304Z,12.68
2019-02-28T04:35:04.735Z,15.93
2019-02-28T04:37:30.926Z,15.00
2019-02-28T04:39:57.195Z,15.48
2019-02-28T04:42:23.414Z,14.98
2019-02-28T04:44:51.956Z,15.40
2019-02-28T04:47:17.694Z,12.25
2019-02-28T04:49:43.943Z,12.50
2019-02-28T04:52:11.769Z,14.47
2019-02-28T04:54:38.225Z,15.68
2019-02-28T04:57:04.440Z,15.65
2019-02-28T04:59:31.560Z,14.47
2019-02-28T05:01:58.827Z,14.15
2019-02-28T05:04:25.007Z,14.53
2019-02-28T05:06:52.165Z,15.98
2019-02-28T05:09:19.254Z,15.35
2019-02-28T05:11:45.505Z,16.93
2019-02-28T05:14:11.607Z,16.95
2019-02-28T05:16:37.814Z,18.15
2019-02-28T05:19:04.019Z,19.15
2019-02-28T05:21:30.273Z,16.80
2019-02-28T05:23:56.398Z,15.63
2019-02-28T05:26:23.508Z,15.20
2019-02-28T05:28:50.703Z,18.45
2019-02-28T05:31:16.860Z,13.48
2019-02-28T05:33:44.135Z,15.53
2019-02-28T05:36:10.288Z,17.80
2019-02-28T05:38:36.399Z,17.65
2019-02-28T05:41:02.633Z,18.87
2019-02-28T05:43:29.190Z,14.87
2019-02-28T05:45:56.963Z,15.70
2019-02-28T05:48:23.199Z,16.40
2019-02-28T05:50:52.821Z,14.63
2019-02-28T05:53:17.419Z,15.58
2019-02-28T05:55:44.686Z,18.65
2019-02-28T05:58:10.923Z,15.60
2019-02-28T06:00:37.777Z,14.80
2019-02-28T06:03:04.065Z,15.65
2019-02-28T06:05:30.213Z,15.68
2019-02-28T06:07:56.415Z,15.98
2019-02-28T06:10:24.673Z,14.93
2019-02-28T06:12:51.796Z,17.65
2019-02-28T06:15:18.069Z,16.67
2019-02-28T06:17:44.315Z,12.78
2019-02-28T06:20:11.169Z,20.77
2019-02-28T06:22:37.559Z,17.23
2019-02-28T06:25:06.301Z,16.32
2019-02-28T06:27:41.195Z,18.60
2019-02-28T06:30:00.700Z,19.40
2019-02-28T06:32:27.438Z,16.95
2019-02-28T06:34:54.721Z,17.07
2019-02-28T06:37:20.869Z,20.65
2019-02-28T06:39:47.079Z,16.70
2019-02-28T06:42:13.260Z,18.95
2019-02-28T06:44:39.420Z,20.55
2019-02-28T06:47:05.668Z,17.27
2019-02-28T06:49:32.041Z,16.37
2019-02-28T06:51:58.237Z,18.77
2019-02-28T06:54:24.486Z,19.75
2019-02-28T06:56:54.004Z,17.82
2019-02-28T06:59:18.870Z,19.90
2019-02-28T07:01:45.165Z,20.12
2019-02-28T07:04:14.442Z,20.55
2019-02-28T07:06:39.533Z,22.15
2019-02-28T07:09:05.818Z,19.15
2019-02-28T07:11:32.797Z,19.27
2019-02-28T07:13:59.012Z,24.10
2019-02-28T07:16:25.245Z,18.07
2019-02-28T07:18:53.793Z,20.52
2019-02-28T07:21:19.594Z,18.73
2019-02-28T07:23:45.830Z,19.25
2019-02-28T07:26:11.929Z,19.45
2019-02-28T07:28:38.238Z,19.42
2019-02-28T07:31:04.424Z,18.37
2019-02-28T07:33:30.626Z,21.05
2019-02-28T07:35:56.731Z,20.23
2019-02-28T07:38:25.638Z,23.27
2019-02-28T07:40:51.008Z,22.65
2019-02-28T07:43:17.189Z,21.00
2019-02-28T07:45:43.369Z,23.57
2019-02-28T07:48:09.588Z,23.30
2019-02-28T07:50:35.881Z,22.62
2019-02-28T07:53:02.161Z,23.87
2019-02-28T07:55:30.476Z,22.30
2019-02-28T07:57:56.755Z,22.25
2019-02-28T08:00:24.041Z,23.45
2019-02-28T08:02:50.164Z,21.37
2019-02-28T08:05:16.802Z,21.17
2019-02-28T08:07:43.077Z,22.30
2019-02-28T08:10:18.473Z,23.73
2019-02-28T08:12:44.758Z,20.10
2019-02-28T08:15:20.974Z,23.75
2019-02-28T08:17:45.007Z,21.68
2019-02-28T08:20:11.512Z,23.62
2019-02-28T08:22:37.940Z,22.85
2019-02-28T08:25:08.755Z,26.93
2019-02-28T08:30:01.367Z,24.70
2019-02-28T08:32:28.117Z,24.40
2019-02-28T08:34:55.587Z,27.25
2019-02-28T08:37:24.652Z,28.47
2019-02-28T08:39:50.971Z,25.52
2019-02-28T08:42:17.064Z,28.42
2019-02-28T08:44:43.294Z,27.20
2019-02-28T08:47:09.417Z,29.00
2019-02-28T08:49:42.179Z,29.32
2019-02-28T08:52:05.622Z,31.45
2019-02-28T08:54:31.991Z,28.80
2019-02-28T08:56:58.217Z,28.83
2019-02-28T08:59:24.441Z,30.40
2019-02-28T09:01:50.567Z,31.55
2019-02-28T09:04:16.811Z,38.83
2019-02-28T09:06:42.954Z,35.40
2019-02-28T09:09:09.629Z,34.95
2019-02-28T09:11:35.858Z,37.70
2019-02-28T09:14:02.142Z,32.42
2019-02-28T09:16:28.695Z,39.27
2019-02-28T09:19:00.482Z,40.17
2019-02-28T09:21:22.979Z,40.38
2019-02-28T09:23:49.131Z,38.50
2019-02-28T09:26:15.555Z,38.38
2019-02-28T09:28:44.356Z,35.13
2019-02-28T09:31:10.040Z,38.38
2019-02-28T09:33:36.206Z,35.25
2019-02-28T09:36:02.613Z,37.95
2019-02-28T09:38:30.099Z,33.58
2019-02-28T09:40:56.372Z,38.20
2019-02-28T09:43:23.843Z,37.08
2019-02-28T09:45:51.036Z,34.70
2019-02-28T09:48:17.213Z,30.27
2019-02-28T09:50:43.340Z,31.75
2019-02-28T09:53:15.537Z,36.05
2019-02-28T09:55:40.003Z,24.18
2019-02-28T09:58:06.118Z,34.15
2019-02-28T10:00:33.464Z,35.48
2019-02-28T10:02:59.569Z,30.80
2019-02-28T10:05:25.912Z,33.08
2019-02-28T10:07:52.308Z,33.58
2019-02-28T10:10:22.007Z,30.52
2019-02-28T10:12:48.530Z,30.30
2019-02-28T10:15:16.801Z,33.02
2019-02-28T10:17:43.110Z,32.83
2019-02-28T10:20:16.373Z,28.12
2019-02-28T10:22:44.361Z,31.27
2019-02-28T10:25:13.365Z,32.50
2019-02-28T10:27:39.790Z,36.88
2019-02-28T10:30:18.173Z,31.12
2019-02-28T10:32:49.278Z,31.80
2019-02-28T10:35:21.869Z,34.58
2019-02-28T10:37:48.138Z,30.52
2019-02-28T10:40:17.731Z,31.05
2019-02-28T10:42:45.030Z,32.13
2019-02-28T10:45:13.431Z,31.62
2019-02-28T10:47:46.875Z,28.98
2019-02-28T10:50:32.154Z,34.85
2019-02-28T10:52:55.508Z,32.55
2019-02-28T10:55:22.444Z,30.90
2019-02-28T10:57:49.830Z,29.37
2019-02-28T11:00:23.979Z,32.35
2019-02-28T11:02:53.556Z,34.98
2019-02-28T11:05:21.638Z,38.10
2019-02-28T11:07:48.077Z,28.90
2019-02-28T11:10:14.509Z,31.20
2019-02-28T11:12:40.720Z,29.82
2019-02-28T11:15:10.424Z,31.27
2019-02-28T11:17:36.365Z,30.68
2019-02-28T11:20:06.377Z,34.43
2019-02-28T11:22:32.683Z,32.33
2019-02-28T11:25:01.024Z,38.42
2019-02-28T11:27:27.582Z,31.57
2019-02-28T11:29:53.969Z,33.70
2019-02-28T11:32:20.670Z,34.48
2019-02-28T11:34:48.687Z,29.02
2019-02-28T11:37:15.245Z,30.80
2019-02-28T11:39:41.638Z,31.73
2019-02-28T11:42:10.999Z,34.75
2019-02-28T11:44:37.458Z,35.90
2019-02-28T11:47:03.778Z,31.02
2019-02-28T11:49:30.091Z,34.65
2019-02-28T11:51:56.365Z,34.88
2019-02-28T11:54:22.740Z,31.65
2019-02-28T11:56:49.262Z,33.65
2019-02-28T11:59:15.597Z,37.75
2019-02-28T12:01:42.450Z,33.58
2019-02-28T12:04:10.130Z,36.50
2019-02-28T12:06:36.309Z,35.03
2019-02-28T12:09:04.385Z,33.23
2019-02-28T12:11:33.536Z,32.17
2019-02-28T12:14:00.333Z,38.25
2019-02-28T12:16:26.660Z,33.00
2019-02-28T12:18:52.845Z,30.90
2019-02-28T12:21:19.081Z,33.67
2019-02-28T12:23:45.206Z,29.98
2019-02-28T12:26:14.391Z,34.20
2019-02-28T12:28:39.576Z,34.58
2019-02-28T12:31:06.506Z,34.98
2019-02-28T12:33:32.702Z,39.83
2019-02-28T12:35:59.026Z,30.37
2019-02-28T12:38:28.297Z,34.10
2019-02-28T12:40:53.623Z,33.02
2019-02-28T12:43:20.023Z,33.92
2019-02-28T12:45:47.466Z,33.98
2019-02-28T12:48:14.690Z,33.45
2019-02-28T12:50:41.234Z,29.72
2019-02-28T12:53:09.008Z,30.10
2019-02-28T12:55:38.785Z,33.08
2019-02-28T12:58:04.102Z,34.08
2019-02-28T13:00:33.556Z,31.40
2019-02-28T13:02:59.852Z,32.90
2019-02-28T13:05:26.279Z,27.40
2019-02-28T13:07:52.562Z,32.48
2019-02-28T13:10:26.756Z,30.37
2019-02-28T13:12:49.881Z,31.85
2019-02-28T13:15:17.470Z,32.70
2019-02-28T13:17:44.063Z,31.85
2019-02-28T13:20:12.077Z,33.92
2019-02-28T13:22:38.420Z,31.52
2019-02-28T13:25:07.395Z,39.85
2019-02-28T13:27:33.655Z,33.23
2019-02-28T13:29:59.768Z,30.02
2019-02-28T13:32:25.997Z,32.03
2019-02-28T13:34:52.111Z,32.80
2019-02-28T13:37:18.440Z,33.98
2019-02-28T13:39:44.801Z,34.65
2019-02-28T13:42:12.266Z,33.15
2019-02-28T13:44:38.579Z,40.17
2019-02-28T13:47:09.438Z,33.67
2019-02-28T13:49:33.028Z,34.58
2019-02-28T13:51:59.320Z,30.97
2019-02-28T13:54:26.950Z,31.80
2019-02-28T13:56:53.323Z,30.70
2019-02-28T13:59:19.553Z,30.88
2019-02-28T14:01:45.668Z,30.82
2019-02-28T14:04:11.888Z,29.65
2019-02-28T14:06:38.070Z,31.07
2019-02-28T14:09:05.895Z,31.17
2019-02-28T14:11:32.216Z,31.77
2019-02-28T14:13:58.523Z,32.03
2019-02-28T14:16:26.924Z,29.70
2019-02-28T14:18:54.647Z,38.05
2019-02-28T14:21:21.301Z,44.77
2019-02-28T14:23:47.943Z,41.48
2019-02-28T14:26:14.828Z,41.35
2019-02-28T14:28:41.568Z,44.42
2019-02-28T14:31:07.862Z,38.78
2019-02-28T14:33:33.997Z,36.03
2019-02-28T14:36:00.607Z,40.92
2019-02-28T14:38:29.465Z,41.63
2019-02-28T14:40:55.461Z,44.25
2019-02-28T14:43:21.719Z,39.90
2019-02-28T14:45:48.155Z,40.40
2019-02-28T14:48:14.406Z,36.25
2019-02-28T14:50:40.696Z,36.85
2019-02-28T14:53:13.082Z,35.58
2019-02-28T14:55:37.417Z,41.23
2019-02-28T14:58:03.906Z,36.88
2019-02-28T15:00:31.804Z,40.17
2019-02-28T15:03:02.873Z,36.83
2019-02-28T15:05:32.238Z,38.17
2019-02-28T15:07:58.858Z,38.63
2019-02-28T15:10:27.384Z,39.05
2019-02-28T15:12:55.346Z,39.95
2019-02-28T15:15:22.484Z,41.23
2019-02-28T15:17:48.797Z,38.10
2019-02-28T15:20:15.107Z,41.23
2019-02-28T15:22:41.476Z,41.68
2019-02-28T15:25:27.752Z,38.33
2019-02-28T15:27:54.018Z,38.80
2019-02-28T15:30:34.902Z,35.98
2019-02-28T15:33:01.299Z,42.88
2019-02-28T15:35:27.619Z,40.15
2019-02-28T15:37:53.905Z,40.58
2019-02-28T15:40:29.564Z,36.50
2019-02-28T15:42:55.689Z,42.13
2019-02-28T15:45:21.993Z,40.00
2019-02-28T15:47:48.160Z,40.25
2019-02-28T15:50:17.835Z,42.35
2019-02-28T15:52:45.177Z,41.42
2019-02-28T15:55:13.846Z,44.00
2019-02-28T15:57:40.223Z,38.55
2019-02-28T16:00:15.576Z,43.23
2019-02-28T16:02:43.041Z,42.53
2019-02-28T16:05:09.486Z,44.33
2019-02-28T16:07:35.808Z,41.92
2019-02-28T16:10:02.316Z,42.60
2019-02-28T16:12:28.625Z,44.40
2019-02-28T16:14:55.066Z,46.98
2019-02-28T16:17:21.369Z,46.73
2019-02-28T16:19:47.499Z,43.40
2019-02-28T16:22:14.640Z,46.68
2019-02-28T16:24:42.629Z,45.10
2019-02-28T16:27:09.894Z,49.42
2019-02-28T16:29:36.891Z,52.38
2019-02-28T16:32:07.553Z,55.33
2019-02-28T16:34:34.303Z,49.20
2019-02-28T16:37:01.959Z,55.90
2019-02-28T16:39:28.854Z,46.63
2019-02-28T16:41:56.105Z,51.80
2019-02-28T16:44:22.793Z,46.10
2019-02-28T16:46:51.556Z,48.50
2019-02-28T16:49:18.064Z,42.10
2019-02-28T16:51:45.362Z,46.08
2019-02-28T16:54:12.446Z,41.15
2019-02-28T16:56:39.554Z,47.98
2019-02-28T16:59:07.895Z,45.52
2019-02-28T17:01:34.481Z,43.30
2019-02-28T17:04:01.465Z,43.55
2019-02-28T17:06:28.143Z,45.80
2019-02-28T17:08:56.946Z,51.10
2019-02-28T17:11:23.606Z,40.20
2019-02-28T17:13:52.606Z,44.38
2019-02-28T17:16:20.770Z,43.55
2019-02-28T17:18:47.203Z,43.83
2019-02-28T17:21:18.023Z,44.35
2019-02-28T17:23:45.125Z,49.88
2019-02-28T17:26:12.244Z,47.33
2019-02-28T17:28:51.013Z,46.75
2019-02-28T17:31:34.719Z,44.73
2019-02-28T17:34:01.813Z,45.15
2019-02-28T17:36:28.181Z,45.90
2019-02-28T17:38:55.049Z,45.50
2019-02-28T17:41:22.261Z,68.97
2019-02-28T17:44:22.818Z,75.08
2019-02-28T17:46:52.730Z,57.23
2019-02-28T17:49:35.344Z,37.05
2019-02-28T17:52:19.982Z,49.13
2019-02-28T17:55:02.010Z,47.55
2019-02-28T17:57:36.153Z,49.18
2019-02-28T18:00:06.326Z,48.42
2019-02-28T18:02:54.925Z,47.78
2019-02-28T18:05:41.541Z,50.17
2019-02-28T18:08:19.751Z,50.25
2019-02-28T18:11:15.607Z,45.30
2019-02-28T18:14:12.662Z,49.88
2019-02-28T18:16:58.270Z,51.10
2019-02-28T18:19:33.237Z,50.05
2019-02-28T18:22:31.625Z,55.83
2019-02-28T18:25:01.540Z,49.10
2019-02-28T18:27:43.633Z,35.10
2019-02-28T18:30:29.751Z,50.33
2019-02-28T18:32:56.368Z,47.35
2019-02-28T18:35:22.467Z,46.10
2019-02-28T18:37:49.087Z,47.30
2019-02-28T18:40:15.263Z,45.25
2019-02-28T18:42:41.428Z,46.02
2019-02-28T18:45:09.487Z,47.83
2019-02-28T18:47:39.587Z,46.15
2019-02-28T18:50:05.415Z,46.85
2019-02-28T18:52:31.792Z,52.05
2019-02-28T18:55:05.727Z,48.85
2019-02-28T18:57:26.189Z,44.18
2019-02-28T18:59:52.456Z,45.30
2019-02-28T19:02:18.778Z,49.98
2019-02-28T19:04:44.940Z,49.30
2019-02-28T19:07:11.291Z,45.30
2019-02-28T19:09:37.491Z,47.38
2019-02-28T19:12:03.953Z,45.40
2019-02-28T19:14:30.141Z,41.65
2019-02-28T19:16:56.480Z,43.35
2019-02-28T19:19:22.691Z,42.75
2019-02-28T19:21:49.024Z,45.25
2019-02-28T19:24:15.112Z,42.75
2019-02-28T19:26:41.345Z,43.85
2019-02-28T19:29:07.605Z,38.10
2019-02-28T19:31:33.756Z,43.98
2019-02-28T19:33:59.911Z,42.00
2019-02-28T19:36:26.162Z,41.35
2019-02-28T19:38:52.447Z,41.90
2019-02-28T19:41:18.708Z,42.98
2019-02-28T19:43:44.977Z,40.25
2019-02-28T19:46:11.229Z,38.80
2019-02-28T19:48:37.507Z,39.90
2019-02-28T19:51:03.982Z,39.55
2019-02-28T19:53:30.213Z,38.88
2019-02-28T19:55:56.840Z,38.60
2019-02-28T19:58:23.346Z,41.08
2019-02-28T20:00:49.846Z,38.85
2019-02-28T20:03:16.303Z,39.98
2019-02-28T20:05:42.547Z,39.15
2019-02-28T20:08:09.148Z,42.30
2019-02-28T20:10:35.420Z,36.65
2019-02-28T20:13:02.048Z,40.73
2019-02-28T20:15:30.077Z,38.90
2019-02-28T20:17:56.586Z,39.03
2019-02-28T20:20:25.271Z,37.23
2019-02-28T20:22:51.578Z,42.23
2019-02-28T20:25:18.061Z,39.10
2019-02-28T20:27:44.199Z,35.45
2019-02-28T20:30:15.854Z,34.83
2019-02-28T20:32:42.356Z,38.40
2019-02-28T20:35:09.341Z,34.78
2019-02-28T20:37:35.694Z,39.00
2019-02-28T20:40:07.306Z,34.15
2019-02-28T20:42:33.529Z,34.08
2019-02-28T20:44:59.761Z,37.08
2019-02-28T20:47:25.862Z,35.83
2019-02-28T20:49:53.199Z,35.60
2019-02-28T20:52:19.608Z,34.88
2019-02-28T20:54:46.169Z,36.40
2019-02-28T20:57:12.283Z,32.45
2019-02-28T20:59:38.685Z,39.90
2019-02-28T21:02:05.074Z,34.43
2019-02-28T21:04:31.295Z,39.03
2019-02-28T21:06:57.585Z,33.38
2019-02-28T21:09:24.421Z,36.40
2019-02-28T21:11:50.675Z,36.33
2019-02-28T21:14:17.071Z,32.90
2019-02-28T21:16:43.392Z,32.88
2019-02-28T21:19:10.554Z,33.42
2019-02-28T21:21:36.810Z,35.48
2019-02-28T21:24:03.229Z,36.42
2019-02-28T21:26:29.552Z,35.25
2019-02-28T21:28:55.765Z,33.92
2019-02-28T21:31:22.278Z,37.83
2019-02-28T21:33:48.528Z,35.43
2019-02-28T21:36:15.126Z,34.55
2019-02-28T21:38:41.334Z,36.23
2019-02-28T21:41:07.958Z,34.60
2019-02-28T21:43:34.156Z,35.28
2019-02-28T21:46:00.491Z,36.93
2019-02-28T21:48:26.769Z,44.35
2019-02-28T21:50:53.050Z,38.42
2019-02-28T21:53:19.304Z,41.63
2019-02-28T21:55:45.637Z,37.63
2019-02-28T21:58:11.857Z,42.33
2019-02-28T22:00:38.086Z,42.08
2019-02-28T22:03:04.308Z,41.55
2019-02-28T22:05:30.588Z,44.35
2019-02-28T22:07:57.243Z,45.75
2019-02-28T22:10:23.558Z,42.60
2019-02-28T22:12:49.811Z,45.70
2019-02-28T22:15:20.421Z,44.30
2019-02-28T22:17:49.719Z,48.05
2019-02-28T22:20:16.033Z,46.37
2019-02-28T22:22:42.333Z,44.98
2019-02-28T22:25:10.593Z,42.75
2019-02-28T22:27:36.727Z,39.10
2019-02-28T22:30:26.530Z,40.00
2019-02-28T22:32:54.788Z,38.55
2019-02-28T22:35:23.057Z,37.00
2019-02-28T22:37:49.625Z,39.40
2019-02-28T22:40:15.865Z,43.60
2019-02-28T22:42:42.287Z,44.67
2019-02-28T22:45:08.608Z,41.45
2019-02-28T22:47:34.724Z,52.17
2019-02-28T22:50:01.050Z,47.20
2019-02-28T22:52:28.321Z,55.08
2019-02-28T22:54:54.599Z,57.38
2019-02-28T22:57:20.830Z,61.10
2019-02-28T22:59:47.260Z,64.45
2019-02-28T23:02:13.592Z,64.92
2019-02-28T23:04:39.847Z,59.70
2019-02-28T23:07:06.247Z,61.28
2019-02-28T23:09:32.475Z,64.67
2019-02-28T23:11:58.597Z,65.00
2019-02-28T23:14:24.940Z,65.05
2019-02-28T23:16:51.082Z,67.00
2019-02-28T23:19:17.296Z,66.87
2019-02-28T23:21:43.451Z,69.00
2019-02-28T23:24:09.608Z,68.65
2019-02-28T23:26:57.750Z,70.50
2019-02-28T23:29:25.526Z,69.85
2019-02-28T23:31:58.593Z,65.15
2019-02-28T23:34:28.491Z,62.27
2019-02-28T23:36:54.605Z,69.27
2019-02-28T23:39:20.835Z,70.32
2019-02-28T23:41:46.939Z,68.35
2019-02-28T23:44:13.241Z,71.30
2019-02-28T23:46:39.420Z,64.50
2019-02-28T23:49:05.669Z,66.95
2019-02-28T23:51:32.256Z,66.67
2019-02-28T23:53:58.605Z,66.97
2019-02-28T23:56:24.767Z,61.08
2019-02-28T23:58:50.951Z,60.90
